createdAt,value
2017-06-23T00:00:02.060Z,52.1
2017-06-23T00:01:03.863Z,51.8
2017-06-23T00:02:05.998Z,52.3
2017-06-23T00:03:08.137Z,51.7
2017-06-23T00:04:09.936Z,52.1
2017-06-23T00:05:12.075Z,52.2
2017-06-23T00:06:14.215Z,52.1
2017-06-23T00:07:15.663Z,51.8
2017-06-23T00:08:17.800Z,51.8
2017-06-23T00:09:19.942Z,51.7
2017-06-23T00:10:21.750Z,51.8
2017-06-23T00:11:23.888Z,51.8
2017-06-23T00:12:25.366Z,51.6
2017-06-23T00:13:27.192Z,51.6
2017-06-23T00:14:29.320Z,52.1
2017-06-23T00:15:31.103Z,52.2
2017-06-23T00:16:33.243Z,51.6
2017-06-23T00:17:35.053Z,52
2017-06-23T00:18:36.501Z,52.3
2017-06-23T00:19:38.640Z,51.6
2017-06-23T00:20:40.783Z,51.5
2017-06-23T00:21:42.917Z,51.4
2017-06-23T00:22:44.401Z,51.4
2017-06-23T00:23:46.537Z,51.6
2017-06-23T00:24:48.320Z,51.8
2017-06-23T00:25:50.458Z,51.8
2017-06-23T00:26:52.594Z,51.5
2017-06-23T00:27:54.730Z,51.9
2017-06-23T00:28:56.514Z,52
2017-06-23T00:29:58.654Z,51.4
2017-06-23T00:31:00.791Z,51.5
2017-06-23T00:32:02.927Z,52
2017-06-23T00:33:04.732Z,51.9
2017-06-23T00:34:06.870Z,51.7
2017-06-23T00:35:08.675Z,51.7
2017-06-23T00:36:10.480Z,51.4
2017-06-23T00:37:12.616Z,51.7
2017-06-23T00:38:14.752Z,51.7
2017-06-23T00:39:16.536Z,52
2017-06-23T00:40:18.685Z,52
2017-06-23T00:41:20.823Z,51.7
2017-06-23T00:42:22.629Z,52
2017-06-23T00:43:24.077Z,51.7
2017-06-23T00:44:26.216Z,52
2017-06-23T00:45:28.021Z,51.7
2017-06-23T00:46:30.160Z,52
2017-06-23T00:47:32.305Z,51.9
2017-06-23T00:48:34.443Z,52
2017-06-23T00:49:36.581Z,51.3
2017-06-23T00:50:38.384Z,51.4
2017-06-23T00:51:40.523Z,51.4
2017-06-23T00:52:41.971Z,51.9
2017-06-23T00:53:43.757Z,51.6
2017-06-23T00:54:45.235Z,51.9
2017-06-23T00:55:47.062Z,51.5
2017-06-23T00:56:49.183Z,51.4
2017-06-23T00:57:51.321Z,51.5
2017-06-23T00:58:53.457Z,51.8
2017-06-23T00:59:54.928Z,51.3
2017-06-23T01:00:57.067Z,51.5
2017-06-23T01:01:58.872Z,51.6
2017-06-23T01:03:00.653Z,51.8
2017-06-23T01:04:02.439Z,51.7
2017-06-23T01:05:04.593Z,51.3
2017-06-23T01:06:06.391Z,51.3
2017-06-23T01:07:08.530Z,51.4
2017-06-23T01:08:10.668Z,51.3
2017-06-23T01:09:12.473Z,51.7
2017-06-23T01:10:14.278Z,51.3
2017-06-23T01:11:16.414Z,51.8
2017-06-23T01:12:17.863Z,51.7
2017-06-23T01:13:18.980Z,51.3
2017-06-23T01:14:21.118Z,51.6
2017-06-23T01:15:22.922Z,51.4
2017-06-23T01:16:25.063Z,51.4
2017-06-23T01:17:26.866Z,51.7
2017-06-23T01:18:28.008Z,51.7
2017-06-23T01:19:29.811Z,51.8
2017-06-23T01:20:31.950Z,51.6
2017-06-23T01:21:34.087Z,51.7
2017-06-23T01:22:36.225Z,51.7
2017-06-23T01:23:37.675Z,51.4
2017-06-23T01:24:39.482Z,51.7
2017-06-23T01:25:40.926Z,51.7
2017-06-23T01:26:42.727Z,51.1
2017-06-23T01:27:44.176Z,51.3
2017-06-23T01:28:45.633Z,51.6
2017-06-23T01:29:47.434Z,51.6
2017-06-23T01:30:49.584Z,51.3
2017-06-23T01:31:50.703Z,51.2
2017-06-23T01:32:52.842Z,51.6
2017-06-23T01:33:54.982Z,51.4
2017-06-23T01:34:56.787Z,51.3
2017-06-23T01:35:58.924Z,51.3
2017-06-23T01:37:00.729Z,51
2017-06-23T01:38:02.866Z,51.1
2017-06-23T01:39:04.667Z,51.3
2017-06-23T01:40:06.151Z,51.3
2017-06-23T01:41:08.006Z,51.8
2017-06-23T01:42:10.142Z,51.1
2017-06-23T01:43:12.284Z,51
2017-06-23T01:44:13.730Z,51.4
2017-06-23T01:45:15.535Z,51.1
2017-06-23T01:46:17.336Z,51.2
2017-06-23T01:47:19.145Z,51
2017-06-23T01:48:20.926Z,51.1
2017-06-23T01:49:22.043Z,51.4
2017-06-23T01:50:24.181Z,51.3
2017-06-23T01:51:26.318Z,51.1
2017-06-23T01:52:28.457Z,51.1
2017-06-23T01:53:30.262Z,51.1
2017-06-23T01:54:32.398Z,50.9
2017-06-23T01:55:34.535Z,51.1
2017-06-23T01:56:36.315Z,51.1
2017-06-23T01:57:38.456Z,51.1
2017-06-23T01:58:39.902Z,51
2017-06-23T01:59:42.039Z,51.5
2017-06-23T02:00:44.178Z,51
2017-06-23T02:01:45.963Z,51.5
2017-06-23T02:02:47.412Z,51.3
2017-06-23T02:03:49.217Z,50.8
2017-06-23T02:04:50.690Z,51.2
2017-06-23T02:05:51.805Z,51.2
2017-06-23T02:06:53.945Z,51.3
2017-06-23T02:07:55.396Z,50.9
2017-06-23T02:08:57.198Z,50.9
2017-06-23T02:09:58.665Z,50.9
2017-06-23T02:11:00.801Z,51.3
2017-06-23T02:12:02.938Z,50.7
2017-06-23T02:13:04.737Z,50.7
2017-06-23T02:14:05.897Z,50.8
2017-06-23T02:15:07.366Z,50.6
2017-06-23T02:16:08.835Z,50.7
2017-06-23T02:17:10.639Z,51.3
2017-06-23T02:18:12.777Z,50.7
2017-06-23T02:19:14.559Z,51.3
2017-06-23T02:20:16.429Z,50.5
2017-06-23T02:21:17.921Z,50.7
2017-06-23T02:22:19.748Z,50.7
2017-06-23T02:23:21.553Z,50.8
2017-06-23T02:24:23.691Z,51.2
2017-06-23T02:25:25.830Z,50.6
2017-06-23T02:26:28.020Z,51.3
2017-06-23T02:27:30.158Z,50.9
2017-06-23T02:28:31.962Z,50.8
2017-06-23T02:29:34.098Z,50.8
2017-06-23T02:30:36.248Z,50.8
2017-06-23T02:31:37.723Z,51.3
2017-06-23T02:32:39.887Z,51.2
2017-06-23T02:33:41.687Z,50.8
2017-06-23T02:34:43.826Z,51.2
2017-06-23T02:35:45.630Z,50.9
2017-06-23T02:36:47.768Z,51
2017-06-23T02:37:49.235Z,51
2017-06-23T02:38:51.040Z,50.9
2017-06-23T02:39:53.176Z,50.9
2017-06-23T02:40:55.313Z,51.1
2017-06-23T02:41:57.480Z,50.6
2017-06-23T02:42:59.274Z,51
2017-06-23T02:44:01.401Z,51.1
2017-06-23T02:45:03.206Z,51.1
2017-06-23T02:46:05.012Z,50.7
2017-06-23T02:47:06.824Z,50.7
2017-06-23T02:48:08.624Z,50.5
2017-06-23T02:49:10.764Z,50.7
2017-06-23T02:50:12.903Z,51.1
2017-06-23T02:51:15.051Z,51.2
2017-06-23T02:52:16.832Z,50.7
2017-06-23T02:53:18.636Z,50.8
2017-06-23T02:54:20.418Z,50.6
2017-06-23T02:55:22.275Z,51.1
2017-06-23T02:56:23.410Z,50.8
2017-06-23T02:57:25.197Z,50.9
2017-06-23T02:58:27.000Z,50.8
2017-06-23T02:59:29.139Z,50.6
2017-06-23T03:00:30.946Z,51
2017-06-23T03:01:33.083Z,50.8
2017-06-23T03:02:35.236Z,51
2017-06-23T03:03:37.373Z,50.8
2017-06-23T03:04:39.176Z,50.7
2017-06-23T03:05:40.985Z,50.8
2017-06-23T03:06:42.433Z,50.9
2017-06-23T03:07:44.236Z,50.4
2017-06-23T03:08:46.374Z,50.7
2017-06-23T03:09:48.511Z,50.8
2017-06-23T03:10:50.318Z,50.6
2017-06-23T03:11:52.123Z,50.5
2017-06-23T03:12:53.932Z,50.5
2017-06-23T03:13:55.714Z,50.4
2017-06-23T03:14:57.516Z,50.8
2017-06-23T03:15:59.659Z,50.8
2017-06-23T03:17:01.462Z,50.9
2017-06-23T03:18:03.279Z,50.8
2017-06-23T03:19:05.420Z,50.9
2017-06-23T03:20:06.941Z,50.8
2017-06-23T03:21:08.755Z,50.6
2017-06-23T03:22:10.210Z,50.7
2017-06-23T03:23:12.343Z,50.8
2017-06-23T03:24:14.150Z,50.6
2017-06-23T03:25:16.287Z,50.6
2017-06-23T03:26:17.760Z,50.7
2017-06-23T03:27:19.896Z,50.6
2017-06-23T03:28:22.038Z,50.7
2017-06-23T03:29:24.176Z,50.5
2017-06-23T03:30:26.311Z,50.6
2017-06-23T03:31:27.761Z,50.7
2017-06-23T03:32:29.544Z,50.7
2017-06-23T03:33:31.348Z,50.7
2017-06-23T03:34:32.822Z,50.9
2017-06-23T03:35:34.631Z,50.7
2017-06-23T03:36:36.764Z,50.6
2017-06-23T03:37:38.902Z,50.6
2017-06-23T03:38:40.352Z,50.3
2017-06-23T03:39:42.133Z,50.4
2017-06-23T03:40:43.937Z,50.5
2017-06-23T03:41:45.742Z,50.5
2017-06-23T03:42:47.880Z,50.3
2017-06-23T03:43:50.019Z,50.4
2017-06-23T03:44:52.157Z,50.5
2017-06-23T03:45:54.351Z,50.4
2017-06-23T03:46:56.155Z,50.4
2017-06-23T03:47:58.297Z,50.1
2017-06-23T03:48:59.762Z,50
2017-06-23T03:50:01.902Z,50
2017-06-23T03:51:04.140Z,50.1
2017-06-23T03:52:05.945Z,50.4
2017-06-23T03:53:08.087Z,50.5
2017-06-23T03:54:09.869Z,50
2017-06-23T03:55:11.675Z,50.2
2017-06-23T03:56:13.812Z,50.3
2017-06-23T03:57:15.952Z,50.4
2017-06-23T03:58:18.092Z,50.3
2017-06-23T03:59:20.232Z,50.3
2017-06-23T04:00:21.705Z,50.6
2017-06-23T04:01:23.847Z,50.6
2017-06-23T04:02:25.656Z,50.8
2017-06-23T04:03:27.455Z,50.5
2017-06-23T04:04:29.594Z,50.5
2017-06-23T04:05:31.400Z,50.2
2017-06-23T04:06:32.519Z,50.6
2017-06-23T04:07:34.657Z,50
2017-06-23T04:08:36.455Z,50
2017-06-23T04:09:37.919Z,50.5
2017-06-23T04:10:40.062Z,50.2
2017-06-23T04:11:41.915Z,50.1
2017-06-23T04:12:43.034Z,50.3
2017-06-23T04:13:45.171Z,50.1
2017-06-23T04:14:47.313Z,50.3
2017-06-23T04:15:49.121Z,50.2
2017-06-23T04:16:51.255Z,50.2
2017-06-23T04:17:53.394Z,50.1
2017-06-23T04:18:55.535Z,50.1
2017-06-23T04:19:57.337Z,50.5
2017-06-23T04:20:59.118Z,50.1
2017-06-23T04:22:01.258Z,50.4
2017-06-23T04:23:03.400Z,50.1
2017-06-23T04:24:05.206Z,50.1
2017-06-23T04:25:07.013Z,50
2017-06-23T04:26:08.819Z,50.4
2017-06-23T04:27:10.956Z,50.3
2017-06-23T04:28:12.426Z,50.4
2017-06-23T04:29:14.563Z,50
2017-06-23T04:30:16.351Z,50.1
2017-06-23T04:31:18.161Z,50.3
2017-06-23T04:32:20.300Z,50.3
2017-06-23T04:33:22.436Z,50.1
2017-06-23T04:34:24.223Z,50.3
2017-06-23T04:35:25.669Z,50.3
2017-06-23T04:36:27.808Z,50
2017-06-23T04:37:29.947Z,50
2017-06-23T04:38:32.088Z,50.4
2017-06-23T04:39:33.536Z,50.3
2017-06-23T04:40:35.675Z,50
2017-06-23T04:41:37.455Z,50.2
2017-06-23T04:42:39.608Z,50.4
2017-06-23T04:43:41.408Z,50.1
2017-06-23T04:44:42.853Z,50.2
2017-06-23T04:45:43.968Z,50.5
2017-06-23T04:46:45.086Z,50
2017-06-23T04:47:46.563Z,50.2
2017-06-23T04:48:47.686Z,50
2017-06-23T04:49:49.473Z,50
2017-06-23T04:50:51.609Z,49.8
2017-06-23T04:51:53.750Z,50
2017-06-23T04:52:55.890Z,50
2017-06-23T04:53:57.700Z,49.7
2017-06-23T04:54:59.839Z,49.6
2017-06-23T04:56:01.622Z,49.9
2017-06-23T04:57:03.428Z,49.8
2017-06-23T04:58:05.565Z,49.7
2017-06-23T04:59:07.370Z,50
2017-06-23T05:00:09.173Z,49.7
2017-06-23T05:01:11.310Z,49.4
2017-06-23T05:02:13.122Z,49.5
2017-06-23T05:03:14.604Z,49.7
2017-06-23T05:04:16.387Z,49.6
2017-06-23T05:05:18.526Z,49.5
2017-06-23T05:06:20.329Z,49.4
2017-06-23T05:07:22.136Z,49.7
2017-06-23T05:08:23.939Z,49.5
2017-06-23T05:09:26.081Z,49.7
2017-06-23T05:10:27.551Z,49.3
2017-06-23T05:11:29.698Z,49.5
2017-06-23T05:12:31.499Z,49.6
2017-06-23T05:13:33.409Z,49.4
2017-06-23T05:14:35.194Z,49.7
2017-06-23T05:15:37.000Z,49.3
2017-06-23T05:16:39.138Z,49.7
2017-06-23T05:17:41.275Z,49.7
2017-06-23T05:18:43.463Z,49.9
2017-06-23T05:19:44.936Z,49.6
2017-06-23T05:20:46.740Z,49.2
2017-06-23T05:21:48.882Z,49.9
2017-06-23T05:22:50.685Z,50
2017-06-23T05:23:52.825Z,49.3
2017-06-23T05:24:54.964Z,49.3
2017-06-23T05:25:56.766Z,49.3
2017-06-23T05:26:58.903Z,49.4
2017-06-23T05:28:00.371Z,49.3
2017-06-23T05:29:01.511Z,49.4
2017-06-23T05:30:03.319Z,49.2
2017-06-23T05:31:05.123Z,49.3
2017-06-23T05:32:06.929Z,49.4
2017-06-23T05:33:09.067Z,49.3
2017-06-23T05:34:10.875Z,49.5
2017-06-23T05:35:13.017Z,49.3
2017-06-23T05:36:15.157Z,49.4
2017-06-23T05:37:16.941Z,49.3
2017-06-23T05:38:18.747Z,49.3
2017-06-23T05:39:20.220Z,49.2
2017-06-23T05:40:22.022Z,49.2
2017-06-23T05:41:23.826Z,49.4
2017-06-23T05:42:25.964Z,49.3
2017-06-23T05:43:28.103Z,49.5
2017-06-23T05:44:29.898Z,49.5
2017-06-23T05:45:31.717Z,49.2
2017-06-23T05:46:33.518Z,49.3
2017-06-23T05:47:35.321Z,49.4
2017-06-23T05:48:37.125Z,49.3
2017-06-23T05:49:38.577Z,49.5
2017-06-23T05:50:40.713Z,49.3
2017-06-23T05:51:42.186Z,49.4
2017-06-23T05:52:43.992Z,49.5
2017-06-23T05:53:46.129Z,49.7
2017-06-23T05:54:47.959Z,49.6
2017-06-23T05:55:49.735Z,49.7
2017-06-23T05:56:51.524Z,50
2017-06-23T05:57:53.332Z,49.7
2017-06-23T05:58:55.569Z,49.7
2017-06-23T05:59:57.021Z,50
2017-06-23T06:00:59.163Z,50.2
2017-06-23T06:02:00.976Z,49.6
2017-06-23T06:03:03.117Z,49.8
2017-06-23T06:04:05.276Z,49.6
2017-06-23T06:05:07.421Z,49.7
2017-06-23T06:06:09.561Z,49.6
2017-06-23T06:07:11.352Z,49.7
2017-06-23T06:08:13.490Z,49.4
2017-06-23T06:09:15.297Z,49.4
2017-06-23T06:10:17.104Z,49.1
2017-06-23T06:11:18.909Z,49.3
2017-06-23T06:12:21.059Z,49.3
2017-06-23T06:13:22.846Z,49
2017-06-23T06:14:24.322Z,49.1
2017-06-23T06:15:26.171Z,49.2
2017-06-23T06:16:27.984Z,48.9
2017-06-23T06:17:30.136Z,49.1
2017-06-23T06:18:32.283Z,49
2017-06-23T06:19:34.420Z,48.7
2017-06-23T06:20:36.562Z,48.8
2017-06-23T06:21:38.705Z,48.8
2017-06-23T06:22:40.525Z,48.6
2017-06-23T06:23:42.016Z,48.8
2017-06-23T06:24:43.803Z,48.9
2017-06-23T06:25:45.943Z,48.4
2017-06-23T06:26:47.785Z,48.7
2017-06-23T06:27:49.960Z,48.9
2017-06-23T06:28:51.768Z,48.4
2017-06-23T06:29:53.654Z,48.4
2017-06-23T06:30:55.792Z,48.9
2017-06-23T06:31:57.936Z,48.5
2017-06-23T06:32:59.738Z,48.3
2017-06-23T06:34:01.628Z,48.6
2017-06-23T06:35:03.468Z,48.4
2017-06-23T06:36:05.278Z,48.1
2017-06-23T06:37:07.091Z,48.5
2017-06-23T06:38:08.927Z,48.4
2017-06-23T06:39:10.403Z,48.6
2017-06-23T06:40:12.209Z,48.8
2017-06-23T06:41:14.353Z,48.5
2017-06-23T06:42:16.180Z,48.3
2017-06-23T06:43:18.016Z,48.5
2017-06-23T06:44:20.162Z,48.4
2017-06-23T06:45:21.636Z,48.8
2017-06-23T06:46:23.106Z,48.4
2017-06-23T06:47:24.926Z,48.3
2017-06-23T06:48:27.065Z,48.4
2017-06-23T06:49:28.883Z,48.1
2017-06-23T06:50:30.702Z,48.2
2017-06-23T06:51:32.510Z,48.1
2017-06-23T06:52:34.005Z,48.4
2017-06-23T06:53:35.818Z,48.2
2017-06-23T06:54:37.629Z,48.2
2017-06-23T06:55:39.421Z,48
2017-06-23T06:56:40.547Z,47.9
2017-06-23T06:57:42.686Z,48.1
2017-06-23T06:58:44.504Z,48.1
2017-06-23T06:59:46.292Z,47.9
2017-06-23T07:00:48.449Z,47.9
2017-06-23T07:01:50.268Z,47.9
2017-06-23T07:02:51.752Z,48
2017-06-23T07:03:53.540Z,48
2017-06-23T07:04:55.016Z,47.9
2017-06-23T07:05:56.824Z,47.9
2017-06-23T07:06:58.278Z,48.2
2017-06-23T07:08:00.102Z,48.1
2017-06-23T07:09:01.595Z,47.8
2017-06-23T07:10:03.406Z,48
2017-06-23T07:11:04.949Z,47.8
2017-06-23T07:12:06.766Z,47.8
2017-06-23T07:13:08.589Z,47.9
2017-06-23T07:14:10.073Z,48
2017-06-23T07:15:11.882Z,47.7
2017-06-23T07:16:14.100Z,47.8
2017-06-23T07:17:15.908Z,47.8
2017-06-23T07:18:17.380Z,47.9
2017-06-23T07:19:19.598Z,47.4
2017-06-23T07:20:21.457Z,47.9
2017-06-23T07:21:22.918Z,47.4
2017-06-23T07:22:25.223Z,47.8
2017-06-23T07:23:27.921Z,47.8
2017-06-23T07:24:29.422Z,47.4
2017-06-23T07:25:31.233Z,47.6
2017-06-23T07:26:32.710Z,47.6
2017-06-23T07:27:34.162Z,47.9
2017-06-23T07:28:35.971Z,47.9
2017-06-23T07:29:38.112Z,47.5
2017-06-23T07:30:40.254Z,47.8
2017-06-23T07:31:42.068Z,47.6
2017-06-23T07:32:43.873Z,47.3
2017-06-23T07:33:44.997Z,47.8
2017-06-23T07:34:46.447Z,47.8
2017-06-23T07:35:48.256Z,47.9
2017-06-23T07:36:50.484Z,47.4
2017-06-23T07:37:52.339Z,47.5
2017-06-23T07:38:54.151Z,47.5
2017-06-23T07:39:56.295Z,47.5
2017-06-23T07:40:58.082Z,47.5
2017-06-23T07:41:59.868Z,47.5
2017-06-23T07:43:02.013Z,47.5
2017-06-23T07:44:03.467Z,47.3
2017-06-23T07:45:05.270Z,47.3
2017-06-23T07:46:07.078Z,47.4
2017-06-23T07:47:09.217Z,47.5
2017-06-23T07:48:11.022Z,47.5
2017-06-23T07:49:13.168Z,47.5
2017-06-23T07:50:15.021Z,47.6
2017-06-23T07:51:17.161Z,47.6
2017-06-23T07:52:19.101Z,47.4
2017-06-23T07:53:20.986Z,47.5
2017-06-23T07:54:23.131Z,47.2
2017-06-23T07:55:24.596Z,47.3
2017-06-23T07:56:26.772Z,47.3
2017-06-23T07:57:29.043Z,47
2017-06-23T07:58:31.012Z,47.3
2017-06-23T07:59:33.153Z,47.3
2017-06-23T08:00:34.972Z,47.1
2017-06-23T08:01:36.797Z,46.9
2017-06-23T08:02:38.940Z,47.2
2017-06-23T08:03:41.090Z,47
2017-06-23T08:04:42.926Z,46.9
2017-06-23T08:05:44.735Z,47.2
2017-06-23T08:06:46.538Z,47
2017-06-23T08:07:48.348Z,46.9
2017-06-23T08:08:50.158Z,47.3
2017-06-23T08:09:52.372Z,47
2017-06-23T08:10:53.211Z,47
2017-06-23T08:11:55.020Z,46.8
2017-06-23T08:12:57.255Z,46.6
2017-06-23T08:13:58.738Z,46.8
2017-06-23T08:15:00.648Z,46.8
2017-06-23T08:16:02.891Z,47.1
2017-06-23T08:17:04.696Z,47.2
2017-06-23T08:18:06.508Z,47
2017-06-23T08:19:08.291Z,46.7
2017-06-23T08:20:10.432Z,46.5
2017-06-23T08:21:12.241Z,46.6
2017-06-23T08:22:13.360Z,46.8
2017-06-23T08:23:15.175Z,46.9
2017-06-23T08:24:17.315Z,46.6
2017-06-23T08:25:19.457Z,46.9
2017-06-23T08:26:21.270Z,46.7
2017-06-23T08:27:23.079Z,46.7
2017-06-23T08:28:25.221Z,46.8
2017-06-23T08:29:27.360Z,46.8
2017-06-23T08:30:29.500Z,46.9
2017-06-23T08:31:31.309Z,46.6
2017-06-23T08:32:33.105Z,46.6
2017-06-23T08:33:34.570Z,46.6
2017-06-23T08:34:36.379Z,46.7
2017-06-23T08:35:38.521Z,46.6
2017-06-23T08:36:40.308Z,46.5
2017-06-23T08:37:42.455Z,46
2017-06-23T08:38:43.932Z,46.4
2017-06-23T08:39:45.745Z,46.5
2017-06-23T08:40:47.216Z,46.5
2017-06-23T08:41:48.676Z,46.3
2017-06-23T08:42:50.483Z,46.4
2017-06-23T08:43:52.521Z,46.5
2017-06-23T08:44:55.062Z,46.2
2017-06-23T08:45:57.554Z,46.5
2017-06-23T08:46:59.606Z,45.9
2017-06-23T08:48:01.488Z,46.2
2017-06-23T08:49:03.978Z,46.1
2017-06-23T08:50:06.198Z,46
2017-06-23T08:51:07.813Z,45.9
2017-06-23T08:52:09.629Z,45.9
2017-06-23T08:53:11.970Z,45.8
2017-06-23T08:54:14.870Z,45.9
2017-06-23T08:55:17.177Z,45.9
2017-06-23T08:56:19.548Z,46.2
2017-06-23T08:57:21.105Z,45.9
2017-06-23T08:58:23.174Z,46.5
2017-06-23T08:59:25.424Z,46.2
2017-06-23T09:00:27.565Z,46.1
2017-06-23T09:01:29.722Z,46
2017-06-23T09:02:30.858Z,46.5
2017-06-23T09:03:32.346Z,45.8
2017-06-23T09:04:34.192Z,46
2017-06-23T09:05:36.396Z,46.1
2017-06-23T09:06:37.895Z,45.7
2017-06-23T09:07:39.389Z,46
2017-06-23T09:08:40.902Z,45.8
2017-06-23T09:09:42.477Z,46
2017-06-23T09:10:44.652Z,46.1
2017-06-23T09:11:46.461Z,46.2
2017-06-23T09:12:48.605Z,45.6
2017-06-23T09:13:50.748Z,45.8
2017-06-23T09:14:52.559Z,45.8
2017-06-23T09:15:54.698Z,45.8
2017-06-23T09:16:56.155Z,46
2017-06-23T09:17:57.948Z,46.1
2017-06-23T09:18:59.755Z,46
2017-06-23T09:20:01.903Z,45.9
2017-06-23T09:21:03.719Z,46.1
2017-06-23T09:22:05.528Z,46.1
2017-06-23T09:23:07.319Z,46.2
2017-06-23T09:24:09.558Z,46
2017-06-23T09:25:11.017Z,46.1
2017-06-23T09:26:12.827Z,45.6
2017-06-23T09:27:14.970Z,46
2017-06-23T09:28:16.119Z,45.6
2017-06-23T09:29:17.926Z,46.1
2017-06-23T09:30:20.071Z,45.9
2017-06-23T09:31:21.857Z,45.7
2017-06-23T09:32:23.334Z,45.6
2017-06-23T09:33:25.124Z,45.8
2017-06-23T09:34:26.935Z,46.3
2017-06-23T09:35:28.074Z,45.8
2017-06-23T09:36:30.214Z,46
2017-06-23T09:37:31.666Z,45.6
2017-06-23T09:38:33.805Z,45.8
2017-06-23T09:39:35.716Z,46.1
2017-06-23T09:40:37.523Z,45.7
2017-06-23T09:41:39.663Z,46.1
2017-06-23T09:42:41.120Z,45.7
2017-06-23T09:43:42.911Z,45.7
2017-06-23T09:44:44.715Z,46
2017-06-23T09:45:46.496Z,45.7
2017-06-23T09:46:47.970Z,46.1
2017-06-23T09:47:50.111Z,46.1
2017-06-23T09:48:51.564Z,46
2017-06-23T09:49:53.422Z,46.2
2017-06-23T09:50:54.548Z,46.1
2017-06-23T09:51:56.352Z,46
2017-06-23T09:52:58.160Z,46
2017-06-23T09:53:59.636Z,45.8
2017-06-23T09:55:01.775Z,45.9
2017-06-23T09:56:02.898Z,46
2017-06-23T09:57:04.419Z,45.7
2017-06-23T09:58:06.313Z,45.6
2017-06-23T09:59:08.456Z,46
2017-06-23T10:00:10.597Z,45.6
2017-06-23T10:01:12.407Z,45.8
2017-06-23T10:02:13.882Z,45.6
2017-06-23T10:03:15.765Z,45.7
2017-06-23T10:04:17.952Z,45.5
2017-06-23T10:05:19.425Z,45.6
2017-06-23T10:06:21.563Z,45.7
2017-06-23T10:07:23.017Z,45.6
2017-06-23T10:08:25.161Z,45.7
2017-06-23T10:09:26.967Z,45.7
2017-06-23T10:10:28.802Z,45.7
2017-06-23T10:11:30.277Z,45.7
2017-06-23T10:12:32.087Z,45.6
2017-06-23T10:13:33.537Z,45.9
2017-06-23T10:14:35.320Z,45.8
2017-06-23T10:15:37.510Z,45.6
2017-06-23T10:16:38.991Z,45.6
2017-06-23T10:17:41.135Z,45.6
2017-06-23T10:18:43.273Z,45.5
2017-06-23T10:19:45.417Z,45.6
2017-06-23T10:20:46.891Z,45.6
2017-06-23T10:21:48.701Z,45.8
2017-06-23T10:22:49.816Z,45.5
2017-06-23T10:23:50.936Z,45.6
2017-06-23T10:24:52.407Z,45.5
2017-06-23T10:25:54.546Z,45.7
2017-06-23T10:26:56.340Z,45.7
2017-06-23T10:27:58.148Z,45.6
2017-06-23T10:28:59.955Z,45.6
2017-06-23T10:30:01.763Z,45.5
2017-06-23T10:31:03.240Z,45.6
2017-06-23T10:32:04.694Z,46.4
2017-06-23T10:33:06.204Z,46
2017-06-23T10:34:08.008Z,45.7
2017-06-23T10:35:10.147Z,45.6
2017-06-23T10:36:11.668Z,45.5
2017-06-23T10:37:13.810Z,45.6
2017-06-23T10:38:15.951Z,45.6
2017-06-23T10:39:18.091Z,45.6
2017-06-23T10:40:19.906Z,45.7
2017-06-23T10:41:22.048Z,45.3
2017-06-23T10:42:24.187Z,45.3
2017-06-23T10:43:25.972Z,45.1
2017-06-23T10:44:28.110Z,45.1
2017-06-23T10:45:30.249Z,45.4
2017-06-23T10:46:31.699Z,44.9
2017-06-23T10:47:33.842Z,44.9
2017-06-23T10:48:35.635Z,45.1
2017-06-23T10:49:37.087Z,44.9
2017-06-23T10:50:38.893Z,45.2
2017-06-23T10:51:40.713Z,45.4
2017-06-23T10:52:42.520Z,45.1
2017-06-23T10:53:43.992Z,45.1
2017-06-23T10:54:45.113Z,45.1
2017-06-23T10:55:46.918Z,44.9
2017-06-23T10:56:49.058Z,44.9
2017-06-23T10:57:50.846Z,45.3
2017-06-23T10:58:52.321Z,45
2017-06-23T10:59:54.127Z,45.1
2017-06-23T11:00:55.931Z,45.3
2017-06-23T11:01:57.719Z,45.2
2017-06-23T11:03:00.080Z,45.2
2017-06-23T11:04:01.223Z,44.7
2017-06-23T11:05:02.692Z,45.3
2017-06-23T11:06:04.503Z,44.9
2017-06-23T11:07:06.642Z,45.1
2017-06-23T11:08:08.781Z,44.8
2017-06-23T11:09:10.591Z,45
2017-06-23T11:10:12.400Z,45.2
2017-06-23T11:11:14.205Z,44.8
2017-06-23T11:12:16.012Z,45.2
2017-06-23T11:13:18.154Z,44.8
2017-06-23T11:14:20.294Z,44.9
2017-06-23T11:15:22.120Z,44.6
2017-06-23T11:16:23.909Z,44.8
2017-06-23T11:17:26.049Z,45.1
2017-06-23T11:18:28.194Z,45
2017-06-23T11:19:29.646Z,45.1
2017-06-23T11:20:31.454Z,45.2
2017-06-23T11:21:33.604Z,45.2
2017-06-23T11:22:35.414Z,44.9
2017-06-23T11:23:36.886Z,44.8
2017-06-23T11:24:38.669Z,45.2
2017-06-23T11:25:40.159Z,44.6
2017-06-23T11:26:42.367Z,44.9
2017-06-23T11:27:44.565Z,44.8
2017-06-23T11:28:46.747Z,44.9
2017-06-23T11:29:48.555Z,44.8
2017-06-23T11:30:50.695Z,44.8
2017-06-23T11:31:52.504Z,44.9
2017-06-23T11:32:54.415Z,44.9
2017-06-23T11:33:56.555Z,44.9
2017-06-23T11:34:58.361Z,44.6
2017-06-23T11:36:00.500Z,44.8
2017-06-23T11:37:01.962Z,44.9
2017-06-23T11:38:03.438Z,44.7
2017-06-23T11:39:04.911Z,44.7
2017-06-23T11:40:06.726Z,44.7
2017-06-23T11:41:08.178Z,44.5
2017-06-23T11:42:10.319Z,44.8
2017-06-23T11:43:12.457Z,44.7
2017-06-23T11:44:13.911Z,44.6
2017-06-23T11:45:15.053Z,44.9
2017-06-23T11:46:16.860Z,44.8
2017-06-23T11:47:18.332Z,44.7
2017-06-23T11:48:20.141Z,44.8
2017-06-23T11:49:21.933Z,44.7
2017-06-23T11:50:24.071Z,44.7
2017-06-23T11:51:25.883Z,44.6
2017-06-23T11:52:28.025Z,44.4
2017-06-23T11:53:29.832Z,44.6
2017-06-23T11:54:31.615Z,44.8
2017-06-23T11:55:33.757Z,44.5
2017-06-23T11:56:35.566Z,44.4
2017-06-23T11:57:37.015Z,44.4
2017-06-23T11:58:39.156Z,44.7
2017-06-23T11:59:41.297Z,44.5
2017-06-23T12:00:43.107Z,44.6
2017-06-23T12:01:44.572Z,44.6
2017-06-23T12:02:46.713Z,44.8
2017-06-23T12:03:48.522Z,44.5
2017-06-23T12:04:49.996Z,45
2017-06-23T12:05:52.136Z,44.9
2017-06-23T12:06:54.275Z,44.9
2017-06-23T12:07:55.753Z,44.5
2017-06-23T12:08:57.565Z,44.8
2017-06-23T12:09:59.036Z,45
2017-06-23T12:11:01.176Z,44.7
2017-06-23T12:12:02.982Z,44.5
2017-06-23T12:13:04.106Z,44.5
2017-06-23T12:14:05.915Z,44.4
2017-06-23T12:15:07.723Z,44.3
2017-06-23T12:16:09.184Z,44.5
2017-06-23T12:17:10.327Z,44.2
2017-06-23T12:18:12.467Z,44.5
2017-06-23T12:19:14.274Z,44.5
2017-06-23T12:20:16.415Z,44.6
2017-06-23T12:21:18.200Z,44.7
2017-06-23T12:22:19.990Z,44.2
2017-06-23T12:23:21.775Z,44.4
2017-06-23T12:24:23.633Z,44.5
2017-06-23T12:25:25.435Z,45
2017-06-23T12:26:26.553Z,44.5
2017-06-23T12:27:28.362Z,44.5
2017-06-23T12:28:30.502Z,44.5
2017-06-23T12:29:32.312Z,44.7
2017-06-23T12:30:34.449Z,44.6
2017-06-23T12:31:35.906Z,44.5
2017-06-23T12:32:37.711Z,44.5
2017-06-23T12:33:39.166Z,44.2
2017-06-23T12:34:40.641Z,44.5
2017-06-23T12:35:42.783Z,44.3
2017-06-23T12:36:44.925Z,44.4
2017-06-23T12:37:47.066Z,44.3
2017-06-23T12:38:48.874Z,44.1
2017-06-23T12:39:50.678Z,43.9
2017-06-23T12:40:52.817Z,44
2017-06-23T12:41:54.272Z,44.4
2017-06-23T12:42:55.417Z,44.1
2017-06-23T12:43:57.225Z,43.8
2017-06-23T12:44:59.372Z,44.4
2017-06-23T12:46:01.177Z,44.1
2017-06-23T12:47:02.986Z,43.9
2017-06-23T12:48:04.462Z,44.1
2017-06-23T12:49:06.265Z,43.7
2017-06-23T12:50:08.049Z,43.8
2017-06-23T12:51:09.503Z,44.1
2017-06-23T12:52:11.641Z,44.3
2017-06-23T12:53:13.458Z,44.1
2017-06-23T12:54:15.268Z,44.2
2017-06-23T12:55:17.409Z,44.3
2017-06-23T12:56:18.878Z,44.1
2017-06-23T12:57:21.019Z,43.9
2017-06-23T12:58:22.805Z,44.1
2017-06-23T12:59:24.261Z,43.9
2017-06-23T13:00:26.080Z,44
2017-06-23T13:01:27.535Z,44.1
2017-06-23T13:02:29.012Z,44.1
2017-06-23T13:03:31.151Z,44.1
2017-06-23T13:04:32.622Z,44
2017-06-23T13:05:34.431Z,44
2017-06-23T13:06:35.909Z,44
2017-06-23T13:07:37.360Z,44.1
2017-06-23T13:08:38.811Z,43.9
2017-06-23T13:09:40.948Z,44.3
2017-06-23T13:10:42.732Z,43.9
2017-06-23T13:11:44.875Z,43.9
2017-06-23T13:12:46.656Z,44.2
2017-06-23T13:13:48.467Z,43.9
2017-06-23T13:14:50.607Z,44
2017-06-23T13:15:52.392Z,44.1
2017-06-23T13:16:54.202Z,44.1
2017-06-23T13:17:55.673Z,44.2
2017-06-23T13:18:57.153Z,43.9
2017-06-23T13:19:59.295Z,44
2017-06-23T13:21:01.440Z,44.4
2017-06-23T13:22:02.574Z,44.1
2017-06-23T13:23:04.029Z,44
2017-06-23T13:24:05.836Z,44.5
2017-06-23T13:25:07.745Z,43.9
2017-06-23T13:26:09.553Z,43.7
2017-06-23T13:27:11.358Z,44.2
2017-06-23T13:28:13.143Z,44.2
2017-06-23T13:29:14.951Z,44.3
2017-06-23T13:30:16.403Z,43.9
2017-06-23T13:31:18.540Z,44.2
2017-06-23T13:32:19.688Z,43.8
2017-06-23T13:33:21.494Z,43.7
2017-06-23T13:34:23.305Z,43.9
2017-06-23T13:35:25.445Z,43.7
2017-06-23T13:36:26.918Z,43.9
2017-06-23T13:37:28.370Z,43.9
2017-06-23T13:38:29.832Z,44
2017-06-23T13:39:30.616Z,44
2017-06-23T13:40:31.746Z,43.7
2017-06-23T13:41:33.885Z,44.1
2017-06-23T13:42:36.028Z,43.4
2017-06-23T13:43:37.507Z,43.4
2017-06-23T13:44:39.312Z,43.3
2017-06-23T13:45:41.119Z,43.7
2017-06-23T13:46:42.906Z,43.8
2017-06-23T13:47:45.047Z,44
2017-06-23T13:48:46.856Z,43.8